Time;durP1;ratioP1;P1;durP2;ratioP2;P2;SDS_P1;SDS_P2;PMS_P1;PMS_P2;Temp;Humidity;BMP_temperature;BMP_pressure;BME280_temperature;BME280_humidity;BME280_pressure;Samples;Min_cycle;Max_cycle;Signal;HPM_P1;HPM_P2
2023/03/27 00:00:43;;;;;;;4.28;2.28;;;20.40;65.40;;;;;;4947802;28;88637;-81
2023/03/27 00:03:11;;;;;;;6.25;2.55;;;20.40;65.40;;;;;;4948407;28;87528;-81
2023/03/27 00:05:37;;;;;;;4.70;2.50;;;20.40;65.20;;;;;;4949006;28;87552;-81
2023/03/27 00:08:04;;;;;;;4.45;2.63;;;20.40;65.30;;;;;;4947421;28;87553;-81
2023/03/27 00:10:31;;;;;;;3.85;2.10;;;20.40;65.30;;;;;;4944561;28;89537;-82
2023/03/27 00:12:58;;;;;;;4.78;2.53;;;20.40;65.50;;;;;;4948575;28;89520;-81
2023/03/27 00:15:24;;;;;;;4.97;2.40;;;20.40;65.20;;;;;;4947696;28;87194;-82
2023/03/27 00:17:53;;;;;;;4.45;2.55;;;20.40;65.10;;;;;;4949379;28;86972;-82
2023/03/27 00:20:21;;;;;;;5.10;2.60;;;20.30;65.20;;;;;;4950083;28;88135;-82
2023/03/27 00:22:55;;;;;;;4.40;2.28;;;20.40;65.00;;;;;;4947876;28;88020;-82
2023/03/27 00:25:23;;;;;;;4.68;2.28;;;20.40;64.90;;;;;;4949103;28;87564;-83
2023/03/27 00:27:50;;;;;;;4.47;2.20;;;20.40;65.10;;;;;;4947082;28;87167;-82
2023/03/27 00:30:16;;;;;;;4.68;2.50;;;20.40;65.10;;;;;;4946208;28;87796;-82
2023/03/27 00:32:42;;;;;;;3.45;2.05;;;20.40;64.70;;;;;;4937069;28;88080;-83
2023/03/27 00:35:08;;;;;;;4.30;2.40;;;20.30;64.80;;;;;;4915601;28;88285;-82
2023/03/27 00:37:35;;;;;;;4.10;2.67;;;20.40;64.70;;;;;;4926875;28;88248;-82
2023/03/27 00:40:06;;;;;;;4.65;2.38;;;20.30;64.80;;;;;;4929901;28;89682;-83
2023/03/27 00:42:33;;;;;;;3.42;2.20;;;20.30;64.70;;;;;;4928635;28;88446;-83
2023/03/27 00:44:59;;;;;;;5.72;2.42;;;20.30;65.40;;;;;;4929855;28;87113;-83
2023/03/27 00:47:37;;;;;;;3.28;1.90;;;20.30;64.70;;;;;;4927930;28;90428;-83
2023/03/27 00:50:11;;;;;;;3.90;2.27;;;20.30;64.50;;;;;;4930247;28;87601;-82
2023/03/27 00:52:43;;;;;;;3.80;2.20;;;20.30;64.50;;;;;;4927285;28;88233;-83
2023/03/27 00:55:14;;;;;;;4.15;2.20;;;20.30;64.50;;;;;;4929230;28;87411;-83
2023/03/27 00:57:43;;;;;;;4.88;2.72;;;20.30;64.50;;;;;;4928084;28;87142;-83
2023/03/27 01:00:15;;;;;;;3.70;2.20;;;20.30;64.60;;;;;;4927948;28;88518;-83
2023/03/27 01:02:43;;;;;;;3.97;2.05;;;20.20;64.50;;;;;;4928207;28;89181;-83
2023/03/27 01:05:10;;;;;;;4.97;2.67;;;20.20;64.60;;;;;;4928792;28;87602;-82
2023/03/27 01:07:39;;;;;;;4.15;2.20;;;20.20;64.30;;;;;;4926684;28;87787;-83
2023/03/27 01:10:07;;;;;;;3.75;2.03;;;20.20;64.50;;;;;;4931216;28;88612;-83
2023/03/27 01:12:54;;;;;;;3.00;1.73;;;20.20;64.30;;;;;;4928745;28;89260;-83
2023/03/27 01:15:32;;;;;;;3.35;2.15;;;20.20;64.60;;;;;;4927712;28;87379;-83
2023/03/27 01:18:17;;;;;;;3.92;2.15;;;20.20;64.60;;;;;;4928616;28;87374;-83
2023/03/27 01:20:48;;;;;;;2.83;1.95;;;20.10;64.50;;;;;;4924963;28;88687;-83
2023/03/27 01:23:32;;;;;;;4.70;2.58;;;20.10;64.60;;;;;;4925816;28;88254;-83
2023/03/27 01:26:45;;;;;;;4.50;2.60;;;20.20;64.50;;;;;;4926109;28;88513;-83
2023/03/27 01:29:37;;;;;;;4.20;2.35;;;20.10;64.40;;;;;;4848968;29;87538;-83
2023/03/27 01:32:06;;;;;;;3.80;2.15;;;20.10;65.30;;;;;;4855626;28;87742;-84
2023/03/27 01:34:49;;;;;;;4.57;2.40;;;20.10;64.30;;;;;;4888252;28;87302;-83
2023/03/27 01:38:06;;;;;;;3.53;2.20;;;20.10;64.30;;;;;;4886386;28;87930;-83
2023/03/27 01:40:33;;;;;;;4.57;2.67;;;20.10;64.10;;;;;;4843546;29;89630;-82
2023/03/27 01:43:19;;;;;;;5.47;2.60;;;20.10;64.30;;;;;;4842357;29;88239;-82
2023/03/27 01:46:15;;;;;;;4.00;2.08;;;20.10;64.40;;;;;;4843530;29;92875;-83
2023/03/27 01:48:49;;;;;;;4.47;2.38;;;20.10;64.40;;;;;;4843246;29;87843;-83
2023/03/27 01:51:38;;;;;;;3.78;2.30;;;20.10;64.50;;;;;;4841929;29;87330;-83
2023/03/27 01:54:30;;;;;;;3.25;1.98;;;20.10;64.40;;;;;;4841405;29;90527;-83
2023/03/27 01:57:07;;;;;;;3.55;2.08;;;20.10;64.30;;;;;;4844023;29;88066;-83
2023/03/27 01:59:39;;;;;;;3.20;1.83;;;20.10;64.30;;;;;;4836055;29;87492;-82
2023/03/27 02:02:12;;;;;;;3.28;1.83;;;20.10;64.20;;;;;;4843166;29;87473;-83
2023/03/27 02:04:45;;;;;;;3.08;1.73;;;20.10;64.20;;;;;;4857678;28;88982;-83
2023/03/27 02:07:17;;;;;;;3.55;2.08;;;20.10;64.10;;;;;;4873182;28;87333;-82
2023/03/27 02:09:54;;;;;;;2.60;1.88;;;20.10;63.90;;;;;;4872426;28;86962;-82
2023/03/27 02:12:26;;;;;;;3.22;2.10;;;20.00;63.80;;;;;;4869769;28;87526;-82
2023/03/27 02:15:06;;;;;;;3.08;1.70;;;20.00;63.90;;;;;;4873895;28;88104;-83
2023/03/27 02:17:38;;;;;;;3.58;1.55;;;20.00;63.80;;;;;;4911534;28;88539;-83
2023/03/27 02:20:15;;;;;;;4.38;2.13;;;20.00;63.70;;;;;;4909467;28;87947;-82
2023/03/27 02:22:47;;;;;;;4.38;2.13;;;20.00;64.00;;;;;;4910569;28;87480;-83
2023/03/27 02:25:37;;;;;;;3.30;1.92;;;20.00;63.90;;;;;;4916166;28;87541;-80
2023/03/27 02:28:45;;;;;;;3.42;1.70;;;20.00;63.80;;;;;;4949992;28;91614;-83
2023/03/27 02:31:19;;;;;;;3.38;2.25;;;20.00;63.90;;;;;;4882551;28;89788;-83
2023/03/27 02:34:13;;;;;;;3.70;1.85;;;20.00;63.80;;;;;;4889355;28;93550;-82
2023/03/27 02:36:55;;;;;;;3.40;1.90;;;19.90;64.10;;;;;;4890673;28;88673;-83
2023/03/27 02:39:37;;;;;;;3.63;1.95;;;19.90;64.00;;;;;;4891420;28;87864;-83
2023/03/27 02:42:21;;;;;;;3.95;2.20;;;19.90;63.80;;;;;;4889908;28;87360;-82
2023/03/27 02:45:17;;;;;;;4.00;1.70;;;19.90;64.00;;;;;;4888704;28;87476;-83
2023/03/27 02:47:58;;;;;;;3.45;1.80;;;19.90;63.90;;;;;;4887423;28;87830;-82
2023/03/27 02:50:30;;;;;;;3.40;1.85;;;19.90;63.90;;;;;;4889223;28;88872;-82
2023/03/27 02:53:00;;;;;;;3.00;1.67;;;19.90;63.70;;;;;;4890511;28;87545;-83
2023/03/27 02:55:32;;;;;;;2.38;1.80;;;19.90;63.80;;;;;;4887263;28;88436;-83
2023/03/27 02:58:08;;;;;;;2.95;1.88;;;19.90;64.00;;;;;;4891878;28;88580;-83
2023/03/27 03:00:40;;;;;;;3.22;2.15;;;19.90;64.20;;;;;;4888311;28;90990;-84
2023/03/27 03:03:33;;;;;;;3.40;1.77;;;19.80;64.10;;;;;;4890701;28;86983;-83
2023/03/27 03:06:03;;;;;;;3.50;1.98;;;19.80;64.20;;;;;;4888452;28;87695;-82
2023/03/27 03:08:29;;;;;;;3.05;1.75;;;19.90;64.20;;;;;;4922844;28;89888;-83
2023/03/27 03:11:00;;;;;;;3.72;1.92;;;19.80;64.10;;;;;;4948802;28;88113;-82
2023/03/27 03:13:26;;;;;;;4.22;1.90;;;19.80;63.90;;;;;;4949026;28;88129;-82
2023/03/27 03:15:51;;;;;;;3.35;2.00;;;19.80;63.90;;;;;;4949829;28;87817;-82
2023/03/27 03:18:17;;;;;;;2.58;1.55;;;19.80;64.10;;;;;;4949101;28;87662;-83
2023/03/27 03:20:44;;;;;;;2.80;1.50;;;19.80;64.10;;;;;;4948878;28;87144;-83
2023/03/27 03:23:10;;;;;;;2.50;1.63;;;19.80;64.10;;;;;;4949987;28;87379;-83
2023/03/27 03:25:35;;;;;;;2.85;1.80;;;19.80;64.30;;;;;;4947465;28;86967;-83
2023/03/27 03:28:01;;;;;;;2.63;1.50;;;19.80;64.20;;;;;;4950375;28;88696;-83
2023/03/27 03:30:29;;;;;;;2.47;1.85;;;19.80;64.10;;;;;;4947175;28;87227;-82
2023/03/27 03:32:55;;;;;;;2.60;1.65;;;19.80;64.00;;;;;;4937075;28;87951;-83
2023/03/27 03:35:23;;;;;;;2.97;1.80;;;19.80;64.00;;;;;;4927120;28;86994;-83
2023/03/27 03:37:50;;;;;;;3.33;1.85;;;19.70;63.80;;;;;;4927796;28;88989;-83
2023/03/27 03:40:17;;;;;;;2.67;1.40;;;19.70;63.90;;;;;;4930209;28;89349;-82
2023/03/27 03:42:52;;;;;;;2.40;1.83;;;19.70;64.00;;;;;;4929803;28;87354;-83
2023/03/27 03:45:18;;;;;;;2.70;1.70;;;19.70;64.00;;;;;;4932792;28;87624;-83
2023/03/27 03:47:45;;;;;;;3.03;1.65;;;19.70;64.10;;;;;;4929490;28;88981;-83
2023/03/27 03:50:11;;;;;;;2.70;1.77;;;19.70;64.00;;;;;;4927739;28;87181;-83
2023/03/27 03:52:37;;;;;;;2.55;1.58;;;19.70;64.00;;;;;;4927131;28;87328;-83
2023/03/27 03:55:04;;;;;;;2.85;1.70;;;19.70;64.20;;;;;;4929260;28;86696;-83
2023/03/27 03:57:31;;;;;;;2.67;1.35;;;19.60;64.10;;;;;;4931234;28;87366;-83
2023/03/27 03:59:57;;;;;;;2.03;1.45;;;19.70;64.10;;;;;;4929739;28;87299;-83
2023/03/27 04:02:27;;;;;;;2.30;1.73;;;19.60;64.00;;;;;;4919756;28;88308;-83
2023/03/27 04:04:57;;;;;;;2.47;1.88;;;19.60;64.10;;;;;;4927000;28;89111;-83
2023/03/27 04:07:30;;;;;;;3.28;1.75;;;19.60;64.10;;;;;;4927156;28;88108;-83
2023/03/27 04:09:59;;;;;;;3.42;1.65;;;19.60;64.10;;;;;;4929247;28;89117;-83
2023/03/27 04:12:26;;;;;;;3.15;1.80;;;19.60;64.00;;;;;;4913451;28;86926;-83
2023/03/27 04:14:55;;;;;;;4.30;1.60;;;19.60;64.00;;;;;;4927694;28;86944;-83
2023/03/27 04:17:22;;;;;;;2.83;1.40;;;19.60;64.10;;;;;;4926175;28;88668;-82
2023/03/27 04:19:48;;;;;;;2.17;1.40;;;19.60;64.00;;;;;;4928519;28;89816;-83
2023/03/27 04:22:17;;;;;;;2.45;1.52;;;19.60;63.80;;;;;;4929888;28;87130;-83
2023/03/27 04:24:49;;;;;;;2.97;1.80;;;19.60;64.10;;;;;;4928169;28;89420;-83
2023/03/27 04:27:18;;;;;;;4.00;2.03;;;19.60;64.10;;;;;;4927677;28;88687;-83
2023/03/27 04:29:46;;;;;;;2.60;1.33;;;19.50;64.00;;;;;;4928666;28;88664;-83
2023/03/27 04:32:17;;;;;;;2.58;1.70;;;19.60;64.00;;;;;;4930071;28;87512;-82
2023/03/27 04:34:44;;;;;;;3.13;1.92;;;19.50;63.90;;;;;;4926499;28;87438;-83
2023/03/27 04:37:10;;;;;;;2.90;1.48;;;19.60;64.00;;;;;;4928206;28;87472;-83
2023/03/27 04:39:41;;;;;;;2.03;1.27;;;19.50;63.90;;;;;;4930188;28;88482;-83
2023/03/27 04:42:09;;;;;;;2.60;1.60;;;19.50;63.90;;;;;;4930170;28;87806;-83
2023/03/27 04:44:35;;;;;;;2.55;1.55;;;19.50;64.10;;;;;;4926580;28;87259;-82
2023/03/27 04:47:01;;;;;;;2.38;1.52;;;19.50;64.00;;;;;;4917689;28;89858;-82
2023/03/27 04:49:28;;;;;;;2.63;1.52;;;19.50;64.10;;;;;;4925884;28;87640;-83
2023/03/27 04:51:55;;;;;;;3.17;1.42;;;19.40;64.00;;;;;;4924543;28;88052;-83
2023/03/27 04:54:25;;;;;;;2.83;1.40;;;19.40;64.20;;;;;;4926147;28;87522;-83
2023/03/27 04:56:52;;;;;;;2.90;1.95;;;19.40;64.10;;;;;;4927245;28;87280;-82
2023/03/27 04:59:25;;;;;;;2.80;1.55;;;19.50;64.10;;;;;;4927244;28;87639;-83
2023/03/27 05:01:50;;;;;;;2.33;1.45;;;19.40;64.00;;;;;;4930416;28;88012;-83
2023/03/27 05:04:16;;;;;;;2.53;1.38;;;19.40;64.00;;;;;;4929755;28;87488;-82
2023/03/27 05:06:42;;;;;;;2.67;1.40;;;19.50;64.10;;;;;;4928625;28;88635;-83
2023/03/27 05:09:07;;;;;;;2.97;1.80;;;19.40;64.00;;;;;;4928315;28;87758;-83
2023/03/27 05:11:33;;;;;;;3.15;1.65;;;19.50;64.00;;;;;;4919137;28;87445;-83
2023/03/27 05:13:59;;;;;;;2.20;1.40;;;19.40;64.00;;;;;;4914236;28;89910;-83
2023/03/27 05:16:25;;;;;;;3.22;1.45;;;19.40;63.90;;;;;;4930363;28;90268;-83
2023/03/27 05:18:51;;;;;;;2.70;1.60;;;19.40;63.90;;;;;;4931328;28;88249;-83
2023/03/27 05:21:17;;;;;;;1.90;1.45;;;19.40;63.90;;;;;;4933789;28;87351;-83
2023/03/27 05:23:42;;;;;;;2.42;1.60;;;19.40;63.90;;;;;;4929932;28;87537;-83
2023/03/27 05:26:08;;;;;;;2.47;1.50;;;19.40;63.80;;;;;;4930704;28;87568;-83
2023/03/27 05:28:35;;;;;;;1.75;1.33;;;19.40;63.80;;;;;;4929834;28;89389;-83
2023/03/27 05:31:01;;;;;;;2.40;1.33;;;19.40;63.80;;;;;;4931932;28;87271;-83
2023/03/27 05:33:26;;;;;;;2.75;1.67;;;19.40;63.80;;;;;;4932521;28;86632;-83
2023/03/27 05:35:52;;;;;;;2.15;1.50;;;19.40;63.80;;;;;;4929355;28;89711;-83
2023/03/27 05:38:18;;;;;;;3.25;1.60;;;19.40;63.80;;;;;;4930331;28;89395;-83
2023/03/27 05:40:44;;;;;;;3.15;1.58;;;19.40;63.70;;;;;;4932168;28;87853;-82
2023/03/27 05:43:12;;;;;;;1.77;1.27;;;19.40;63.80;;;;;;4922641;28;88967;-83
2023/03/27 05:45:38;;;;;;;2.45;1.30;;;19.40;63.80;;;;;;4914094;28;91337;-83
2023/03/27 05:48:03;;;;;;;2.95;1.40;;;19.30;63.80;;;;;;4921301;28;91119;-83
2023/03/27 05:50:32;;;;;;;1.65;1.33;;;19.40;63.80;;;;;;4929535;28;87690;-83
2023/03/27 05:52:59;;;;;;;2.25;1.20;;;19.30;63.60;;;;;;4930444;28;87066;-83
2023/03/27 05:55:25;;;;;;;2.53;1.52;;;19.30;63.60;;;;;;4931927;28;87700;-82
2023/03/27 05:57:51;;;;;;;1.85;1.45;;;19.40;63.60;;;;;;4931055;28;87424;-83
2023/03/27 06:00:21;;;;;;;1.85;1.13;;;19.30;63.40;;;;;;4932041;28;87158;-82
2023/03/27 06:02:48;;;;;;;2.40;1.38;;;19.30;63.70;;;;;;4929661;28;87476;-82
2023/03/27 06:05:14;;;;;;;2.63;1.42;;;19.30;63.70;;;;;;4930882;28;89203;-82
2023/03/27 06:07:41;;;;;;;1.50;1.10;;;19.30;63.70;;;;;;4929351;28;88153;-83
2023/03/27 06:10:08;;;;;;;2.30;1.50;;;19.30;64.10;;;;;;4931669;28;87356;-82
2023/03/27 06:12:37;;;;;;;2.20;1.60;;;19.30;63.60;;;;;;4930725;28;87367;-82
2023/03/27 06:15:06;;;;;;;2.40;1.37;;;19.30;63.60;;;;;;4927846;28;87695;-83
2023/03/27 06:17:32;;;;;;;1.73;1.33;;;19.30;63.50;;;;;;4931841;28;87833;-83
2023/03/27 06:19:58;;;;;;;2.65;1.38;;;19.30;63.50;;;;;;4929475;28;87548;-83
2023/03/27 06:22:25;;;;;;;2.00;1.40;;;19.40;63.50;;;;;;4932458;28;87380;-83
2023/03/27 06:24:52;;;;;;;2.60;1.20;;;19.40;63.20;;;;;;4928986;28;87989;-84
2023/03/27 06:27:22;;;;;;;2.03;1.17;;;19.40;62.50;;;;;;4914088;28;90361;-83
2023/03/27 06:29:47;;;;;;;2.28;1.35;;;19.40;62.60;;;;;;4929720;28;88664;-82
2023/03/27 06:32:15;;;;;;;3.17;1.55;;;19.40;63.20;;;;;;4932669;28;89757;-83
2023/03/27 06:34:41;;;;;;;2.05;1.25;;;19.50;62.60;;;;;;4948344;28;87930;-83
2023/03/27 06:37:07;;;;;;;2.70;1.88;;;19.50;63.10;;;;;;4952112;28;89416;-82
2023/03/27 06:39:32;;;;;;;2.45;1.67;;;19.60;63.10;;;;;;4949873;28;87566;-82
2023/03/27 06:41:58;;;;;;;3.72;1.33;;;19.70;62.70;;;;;;4949221;28;87310;-82
2023/03/27 06:44:23;;;;;;;2.38;1.70;;;19.90;62.80;;;;;;4947281;28;88051;-83
2023/03/27 06:46:49;;;;;;;2.97;1.63;;;20.00;62.80;;;;;;4948933;28;87299;-83
2023/03/27 06:49:15;;;;;;;3.55;1.70;;;20.10;62.80;;;;;;4950221;28;87428;-83
2023/03/27 06:51:40;;;;;;;2.63;1.40;;;20.20;62.80;;;;;;4949477;28;89442;-82
2023/03/27 06:54:06;;;;;;;2.05;1.38;;;20.20;62.00;;;;;;4948260;28;90327;-82
2023/03/27 06:56:32;;;;;;;2.25;1.63;;;20.20;61.70;;;;;;4949110;28;88790;-83
2023/03/27 06:58:57;;;;;;;2.15;1.45;;;20.30;61.90;;;;;;4948496;28;87170;-83
2023/03/27 07:01:23;;;;;;;2.13;1.58;;;20.20;62.30;;;;;;4963901;28;89144;-83
2023/03/27 07:03:49;;;;;;;4.05;1.90;;;20.20;62.70;;;;;;4949414;28;88066;-84
2023/03/27 07:06:15;;;;;;;2.00;1.48;;;20.20;62.70;;;;;;4949424;28;87366;-85
2023/03/27 07:08:41;;;;;;;2.88;1.67;;;20.20;62.40;;;;;;4951012;28;88714;-84
2023/03/27 07:11:07;;;;;;;2.83;1.40;;;20.20;62.40;;;;;;4951353;28;88608;-85
2023/03/27 07:13:32;;;;;;;4.07;1.65;;;20.20;62.80;;;;;;4950487;28;88269;-84
2023/03/27 07:15:58;;;;;;;3.25;1.85;;;20.30;62.70;;;;;;4952110;28;87806;-85
2023/03/27 07:18:24;;;;;;;3.92;1.73;;;20.30;62.60;;;;;;4947086;28;87846;-84
2023/03/27 07:20:50;;;;;;;2.22;1.52;;;20.50;62.00;;;;;;4944185;28;90678;-85
2023/03/27 07:23:16;;;;;;;4.28;1.60;;;20.60;62.00;;;;;;4951791;28;90309;-84
2023/03/27 07:25:42;;;;;;;2.50;1.45;;;20.60;61.90;;;;;;4962653;28;89767;-84
2023/03/27 07:28:15;;;;;;;3.80;1.55;;;20.60;61.90;;;;;;4947544;28;87879;-84
2023/03/27 07:30:41;;;;;;;3.13;1.58;;;20.60;62.00;;;;;;4947854;28;87382;-85
2023/03/27 07:33:08;;;;;;;3.55;1.63;;;20.60;62.00;;;;;;4936073;28;87356;-84
2023/03/27 07:35:40;;;;;;;3.25;1.67;;;20.70;62.20;;;;;;4928812;28;89627;-84
2023/03/27 07:38:05;;;;;;;2.55;1.67;;;20.70;61.90;;;;;;4884608;28;87395;-85
2023/03/27 07:40:32;;;;;;;1.95;1.20;;;20.70;61.60;;;;;;4928407;28;88617;-82
2023/03/27 07:42:58;;;;;;;10.77;1.70;;;20.80;61.70;;;;;;4928776;28;90147;-82
2023/03/27 07:45:24;;;;;;;2.47;1.65;;;20.70;61.60;;;;;;4927389;28;88932;-82
2023/03/27 07:47:50;;;;;;;3.53;1.52;;;20.80;62.00;;;;;;4930200;28;87506;-82
2023/03/27 07:50:21;;;;;;;1.95;1.33;;;20.70;62.00;;;;;;4929858;28;89364;-82
2023/03/27 07:52:49;;;;;;;5.95;1.65;;;20.70;62.60;;;;;;4927147;28;88353;-82
2023/03/27 07:55:17;;;;;;;4.60;1.50;;;20.70;62.30;;;;;;4929816;28;89171;-82
2023/03/27 07:57:46;;;;;;;2.58;1.33;;;20.60;62.10;;;;;;4926950;28;86991;-82
2023/03/27 08:00:14;;;;;;;6.70;1.57;;;20.50;62.30;;;;;;4930177;28;87460;-82
2023/03/27 08:02:40;;;;;;;2.75;1.38;;;20.50;62.70;;;;;;4925239;28;89448;-82
2023/03/27 08:05:08;;;;;;;4.80;1.50;;;20.40;63.10;;;;;;4927142;28;87932;-82
2023/03/27 08:07:34;;;;;;;5.28;1.80;;;20.40;63.70;;;;;;4914986;28;88467;-82
2023/03/27 08:10:03;;;;;;;4.18;1.70;;;20.40;63.10;;;;;;4916774;28;87322;-83
2023/03/27 08:12:31;;;;;;;3.47;1.45;;;20.40;63.40;;;;;;4911248;28;88200;-83
2023/03/27 08:14:57;;;;;;;4.93;1.50;;;20.50;62.90;;;;;;4913637;28;87074;-83
2023/03/27 08:17:26;;;;;;;8.40;1.65;;;20.50;62.80;;;;;;4906447;28;87025;-83
2023/03/27 08:19:52;;;;;;;6.23;1.60;;;20.60;62.70;;;;;;4896524;28;90506;-82
2023/03/27 08:22:20;;;;;;;2.92;1.30;;;20.60;63.00;;;;;;4913021;28;90167;-82
2023/03/27 08:24:46;;;;;;;4.70;1.58;;;20.60;63.00;;;;;;4903457;28;87275;-82
2023/03/27 08:27:12;;;;;;;2.03;1.30;;;20.60;63.10;;;;;;4911113;28;87045;-83
2023/03/27 08:29:38;;;;;;;6.80;1.50;;;20.60;63.00;;;;;;4914015;28;87350;-83
2023/03/27 08:32:05;;;;;;;5.63;1.58;;;20.60;60.90;;;;;;4916491;28;89498;-84
2023/03/27 08:34:30;;;;;;;3.58;1.30;;;20.60;62.60;;;;;;4906666;28;94777;-83
2023/03/27 08:36:56;;;;;;;5.47;1.70;;;20.50;62.60;;;;;;4906109;28;87474;-85
2023/03/27 08:39:22;;;;;;;3.97;1.52;;;20.50;62.60;;;;;;4922789;28;88032;-86
2023/03/27 08:41:53;;;;;;;3.88;2.00;;;20.50;62.40;;;;;;4928595;28;88581;-86
2023/03/27 08:44:22;;;;;;;6.80;2.70;;;20.50;62.90;;;;;;4926579;28;88366;-85
2023/03/27 08:46:59;;;;;;;6.75;2.33;;;20.50;63.80;;;;;;4941570;28;87707;-86
2023/03/27 08:49:32;;;;;;;4.80;2.22;;;20.50;64.00;;;;;;4928478;28;86951;-87
2023/03/27 08:52:14;;;;;;;4.30;2.20;;;20.50;64.00;;;;;;4928323;28;91842;-86
2023/03/27 08:54:44;;;;;;;7.07;2.55;;;20.50;64.20;;;;;;4928532;28;87367;-88
2023/03/27 08:57:21;;;;;;;7.85;3.60;;;20.50;64.20;;;;;;4925796;28;88435;-86
2023/03/27 08:59:48;;;;;;;6.38;4.10;;;20.50;64.60;;;;;;4925895;28;89529;-85
2023/03/27 09:02:22;;;;;;;9.05;4.22;;;20.60;65.00;;;;;;4925218;28;87703;-86
2023/03/27 09:05:14;;;;;;;9.55;4.35;;;20.60;65.20;;;;;;4941188;28;91499;-86
2023/03/27 09:08:01;;;;;;;10.10;4.38;;;20.50;65.80;;;;;;4940268;28;87733;-86
2023/03/27 09:10:30;;;;;;;10.73;5.22;;;20.30;66.00;;;;;;4939081;28;90121;-86
2023/03/27 09:13:09;;;;;;;12.00;5.70;;;20.30;66.00;;;;;;4926408;28;86852;-87
2023/03/27 09:15:44;;;;;;;23.00;8.52;;;20.20;66.80;;;;;;4926561;28;88227;-85
2023/03/27 09:18:14;;;;;;;16.25;6.63;;;20.30;63.70;;;;;;4927160;28;87475;-83
2023/03/27 09:20:47;;;;;;;8.23;4.82;;;20.20;65.70;;;;;;4924235;28;87460;-84
2023/03/27 09:23:42;;;;;;;11.30;5.38;;;20.20;66.30;;;;;;4923502;28;88307;-83
2023/03/27 09:26:10;;;;;;;12.68;5.55;;;20.20;65.70;;;;;;4863969;28;89378;-84
2023/03/27 09:28:41;;;;;;;13.38;5.90;;;20.20;65.20;;;;;;4866289;28;87223;-84
2023/03/27 09:31:30;;;;;;;18.77;5.80;;;20.20;65.40;;;;;;4868606;28;87523;-83
2023/03/27 09:33:57;;;;;;;;;;;20.30;65.20;;;;;;4869768;28;92874;-83
2023/03/27 09:36:23;;;;;;;16.00;6.75;;;20.30;65.00;;;;;;4865831;28;88137;-83
2023/03/27 09:38:57;;;;;;;19.83;6.47;;;20.40;65.10;;;;;;4866034;28;87187;-85
2023/03/27 09:41:30;;;;;;;11.98;6.32;;;20.50;65.20;;;;;;4865046;28;87094;-83
2023/03/27 09:44:24;;;;;;;14.43;5.18;;;20.60;64.80;;;;;;4865257;28;88038;-84
2023/03/27 09:46:55;;;;;;;16.05;5.60;;;20.80;64.90;;;;;;4865661;28;89120;-84
2023/03/27 09:49:21;;;;;;;13.73;5.13;;;20.90;64.70;;;;;;4862131;28;88613;-82
2023/03/27 09:51:52;;;;;;;10.80;4.88;;;21.10;63.90;;;;;;4864321;28;87526;-82
2023/03/27 09:54:21;;;;;;;11.68;4.90;;;21.20;63.80;;;;;;4863110;28;90152;-82
2023/03/27 09:56:53;;;;;;;12.03;5.20;;;21.30;63.60;;;;;;4865903;28;88093;-82
2023/03/27 09:59:32;;;;;;;17.42;5.15;;;21.30;63.40;;;;;;4868476;28;87359;-83
2023/03/27 10:02:00;;;;;;;19.80;5.20;;;21.40;63.00;;;;;;4871185;28;87476;-83
2023/03/27 10:04:28;;;;;;;10.05;4.50;;;21.50;62.80;;;;;;4925863;28;89283;-83
2023/03/27 10:07:00;;;;;;;18.80;5.10;;;21.50;63.00;;;;;;4925340;28;88479;-83
2023/03/27 10:09:33;;;;;;;17.48;5.05;;;21.50;63.80;;;;;;4927920;28;86867;-83
2023/03/27 10:12:15;;;;;;;12.73;4.63;;;21.50;63.00;;;;;;4919134;28;87469;-83
2023/03/27 10:14:44;;;;;;;9.63;4.78;;;21.50;63.00;;;;;;4926249;28;89322;-82
2023/03/27 10:17:13;;;;;;;;;;;21.40;63.10;;;;;;4916003;28;89768;-83
2023/03/27 10:19:40;;;;;;;12.73;4.97;;;21.40;63.40;;;;;;4930251;28;87439;-83
2023/03/27 10:22:34;;;;;;;9.88;4.80;;;21.40;63.70;;;;;;4926414;28;87626;-84
2023/03/27 10:25:03;;;;;;;11.23;5.07;;;21.40;63.80;;;;;;4879030;28;94705;-83
2023/03/27 10:27:32;;;;;;;15.30;5.10;;;21.30;63.80;;;;;;4878040;28;88726;-83
2023/03/27 10:29:58;;;;;;;13.65;4.63;;;21.30;63.90;;;;;;4877205;28;87668;-84
2023/03/27 10:32:46;;;;;;;13.65;5.03;;;21.30;63.80;;;;;;4877450;28;87254;-83
2023/03/27 10:35:25;;;;;;;12.77;4.57;;;21.30;63.90;;;;;;4877012;28;88611;-83
2023/03/27 10:37:51;;;;;;;11.02;4.95;;;21.30;63.60;;;;;;4877337;28;94649;-83
2023/03/27 10:40:20;;;;;;;11.63;4.68;;;21.30;64.10;;;;;;4878531;28;88482;-83
2023/03/27 10:42:47;;;;;;;9.73;4.72;;;21.30;64.30;;;;;;4877204;28;91152;-83
2023/03/27 10:45:19;;;;;;;12.80;5.35;;;21.30;64.40;;;;;;4876531;28;89600;-84
2023/03/27 10:47:50;;;;;;;12.40;4.63;;;21.20;64.70;;;;;;4875397;28;89329;-83
2023/03/27 10:50:22;;;;;;;13.15;5.40;;;21.20;64.90;;;;;;4876729;28;87528;-83
2023/03/27 10:52:48;;;;;;;17.00;4.80;;;21.20;64.50;;;;;;4872680;28;87646;-83
2023/03/27 10:55:43;;;;;;;10.82;4.47;;;21.30;64.30;;;;;;4875526;28;87731;-83
2023/03/27 10:58:31;;;;;;;13.70;4.25;;;21.20;64.30;;;;;;4876866;28;92719;-83
2023/03/27 11:01:04;;;;;;;10.02;4.05;;;21.10;65.00;;;;;;4882776;28;88153;-83
2023/03/27 11:03:55;;;;;;;9.55;4.68;;;21.00;65.20;;;;;;4923966;28;87600;-82
2023/03/27 11:06:24;;;;;;;11.02;4.95;;;20.90;65.40;;;;;;4924244;28;89396;-82
2023/03/27 11:08:53;;;;;;;20.60;5.50;;;20.90;65.60;;;;;;4924577;28;88870;-83
2023/03/27 11:11:25;;;;;;;8.20;4.30;;;20.80;65.60;;;;;;4924941;28;87055;-83
2023/03/27 11:13:53;;;;;;;10.93;4.68;;;20.90;65.50;;;;;;4924634;28;88207;-83
2023/03/27 11:16:36;;;;;;;14.52;4.85;;;20.90;65.40;;;;;;4924974;28;89229;-83
2023/03/27 11:19:10;;;;;;;10.15;4.72;;;21.00;65.90;;;;;;4925035;28;90383;-84
2023/03/27 11:21:51;;;;;;;12.00;4.35;;;21.00;64.50;;;;;;4923811;28;87958;-83
2023/03/27 11:24:37;;;;;;;10.77;4.28;;;21.10;64.80;;;;;;4926544;28;86777;-83
2023/03/27 11:27:11;;;;;;;8.43;4.13;;;21.10;64.70;;;;;;4923131;28;87999;-82
2023/03/27 11:30:07;;;;;;;10.93;4.65;;;21.10;64.80;;;;;;4922059;28;88444;-83
2023/03/27 11:33:03;;;;;;;11.13;4.13;;;21.10;64.90;;;;;;4935951;28;89316;-83
2023/03/27 11:35:36;;;;;;;11.13;5.22;;;21.20;64.30;;;;;;4943393;28;89311;-84
2023/03/27 11:38:15;;;;;;;12.73;4.60;;;21.10;64.50;;;;;;4945581;28;87648;-83
2023/03/27 11:40:44;;;;;;;12.02;4.18;;;21.10;64.50;;;;;;4943925;28;87415;-83
2023/03/27 11:43:13;;;;;;;11.63;4.40;;;21.10;64.60;;;;;;4944888;28;87404;-84
2023/03/27 11:46:23;;;;;;;8.02;3.90;;;21.10;64.40;;;;;;4927082;28;87653;-84
2023/03/27 11:48:48;;;;;;;10.50;4.47;;;21.10;64.20;;;;;;4893457;28;93027;-82
2023/03/27 11:51:16;;;;;;;10.25;4.07;;;21.10;65.00;;;;;;4894966;28;87158;-83
2023/03/27 11:54:16;;;;;;;11.32;3.55;;;21.00;65.50;;;;;;4893999;28;87116;-82
2023/03/27 11:56:56;;;;;;;11.75;4.53;;;20.90;66.30;;;;;;4894591;28;87840;-82
2023/03/27 11:59:54;;;;;;;8.30;3.90;;;20.90;67.00;;;;;;4891992;28;88869;-83
2023/03/27 12:02:32;;;;;;;9.50;4.28;;;20.80;66.90;;;;;;4892442;28;90701;-83
2023/03/27 12:05:16;;;;;;;8.02;3.90;;;20.80;68.40;;;;;;4894437;28;87603;-84
2023/03/27 12:08:23;;;;;;;11.25;4.32;;;20.80;67.60;;;;;;4892484;28;88969;-83
2023/03/27 12:10:52;;;;;;;8.75;3.58;;;20.90;66.30;;;;;;4893045;28;89840;-82
2023/03/27 12:13:33;;;;;;;9.10;4.13;;;21.00;65.70;;;;;;4893512;28;88018;-83
2023/03/27 12:16:16;;;;;;;6.97;3.67;;;21.10;65.90;;;;;;4893807;28;87574;-83
2023/03/27 12:18:42;;;;;;;8.48;3.45;;;21.10;66.20;;;;;;4893116;28;87577;-84
2023/03/27 12:21:43;;;;;;;14.07;4.72;;;21.20;65.00;;;;;;4899365;28;90468;-83
2023/03/27 12:24:27;;;;;;;6.55;3.75;;;21.30;64.50;;;;;;4903684;28;88754;-83
2023/03/27 12:27:22;;;;;;;7.38;3.45;;;21.30;64.90;;;;;;4900136;28;88755;-84
2023/03/27 12:30:15;;;;;;;8.57;3.67;;;21.30;64.80;;;;;;4905580;28;87422;-83
2023/03/27 12:33:06;;;;;;;5.07;2.90;;;21.30;64.90;;;;;;4910140;28;88359;-83
2023/03/27 12:35:40;;;;;;;10.35;3.85;;;21.30;64.70;;;;;;4923940;28;87887;-83
2023/03/27 12:38:30;;;;;;;6.72;3.28;;;21.30;64.80;;;;;;4922456;28;87056;-83
2023/03/27 12:41:09;;;;;;;6.55;3.50;;;21.20;64.70;;;;;;4881103;28;87838;-83
2023/03/27 12:43:40;;;;;;;7.55;3.95;;;21.20;64.60;;;;;;4883771;28;89173;-83
2023/03/27 12:46:23;;;;;;;10.98;3.83;;;21.20;64.70;;;;;;4885392;28;87164;-85
2023/03/27 12:49:01;;;;;;;6.85;3.13;;;21.20;63.90;;;;;;4884121;28;87554;-84
2023/03/27 12:51:52;;;;;;;13.35;3.33;;;21.20;60.70;;;;;;4882293;28;88984;-83
2023/03/27 12:54:26;;;;;;;9.75;2.83;;;21.20;61.30;;;;;;4881195;28;90928;-81
2023/03/27 12:56:57;;;;;;;4.80;2.63;;;21.20;62.10;;;;;;4879076;28;89218;-83
2023/03/27 12:59:26;;;;;;;8.57;3.53;;;21.10;63.10;;;;;;4881283;28;87690;-83
2023/03/27 13:02:05;;;;;;;10.33;3.40;;;21.10;62.80;;;;;;4881688;28;88575;-82
2023/03/27 13:05:05;;;;;;;7.47;2.93;;;21.10;63.10;;;;;;4883764;28;88318;-83
2023/03/27 13:07:47;;;;;;;6.68;2.85;;;21.20;63.10;;;;;;4854811;28;88386;-83
2023/03/27 13:10:53;;;;;;;7.97;2.55;;;21.10;62.80;;;;;;4854990;28;87324;-82
2023/03/27 13:13:28;;;;;;;6.65;2.20;;;21.10;60.80;;;;;;4856385;29;92603;-83